sensor_id;sensor_type;location;lat;lon;timestamp;temperature;humidity
9987;DHT22;5033;46.310;11.214;2023-03-23T00:00:53;13.40;99.90
9987;DHT22;5033;46.310;11.214;2023-03-23T00:03:20;13.40;99.90
9987;DHT22;5033;46.310;11.214;2023-03-23T00:05:48;13.30;99.90
9987;DHT22;5033;46.310;11.214;2023-03-23T00:08:19;13.20;99.90
9987;DHT22;5033;46.310;11.214;2023-03-23T00:10:50;13.10;99.90
9987;DHT22;5033;46.310;11.214;2023-03-23T00:13:18;13.10;99.90
9987;DHT22;5033;46.310;11.214;2023-03-23T00:15:46;13.00;99.90
9987;DHT22;5033;46.310;11.214;2023-03-23T00:18:14;13.00;99.90
9987;DHT22;5033;46.310;11.214;2023-03-23T00:20:47;12.90;99.90
9987;DHT22;5033;46.310;11.214;2023-03-23T00:23:15;12.90;99.90
9987;DHT22;5033;46.310;11.214;2023-03-23T00:25:47;12.80;99.90
9987;DHT22;5033;46.310;11.214;2023-03-23T00:28:15;12.70;99.90
9987;DHT22;5033;46.310;11.214;2023-03-23T00:30:42;12.70;99.90
9987;DHT22;5033;46.310;11.214;2023-03-23T00:33:11;12.60;99.90
9987;DHT22;5033;46.310;11.214;2023-03-23T00:35:40;12.60;99.90
9987;DHT22;5033;46.310;11.214;2023-03-23T00:38:07;12.60;99.90
9987;DHT22;5033;46.310;11.214;2023-03-23T00:40:34;12.50;99.90
9987;DHT22;5033;46.310;11.214;2023-03-23T00:43:04;12.50;99.90
9987;DHT22;5033;46.310;11.214;2023-03-23T00:45:31;12.50;99.90
9987;DHT22;5033;46.310;11.214;2023-03-23T00:48:00;12.50;99.90
9987;DHT22;5033;46.310;11.214;2023-03-23T00:50:29;12.50;99.90
9987;DHT22;5033;46.310;11.214;2023-03-23T00:52:56;12.50;99.90
9987;DHT22;5033;46.310;11.214;2023-03-23T00:55:24;12.50;99.90
9987;DHT22;5033;46.310;11.214;2023-03-23T00:57:51;12.60;99.90
9987;DHT22;5033;46.310;11.214;2023-03-23T01:00:21;12.60;99.90
9987;DHT22;5033;46.310;11.214;2023-03-23T01:02:48;12.50;99.90
9987;DHT22;5033;46.310;11.214;2023-03-23T01:05:20;12.40;99.90
9987;DHT22;5033;46.310;11.214;2023-03-23T01:07:47;12.40;99.90
9987;DHT22;5033;46.310;11.214;2023-03-23T01:10:15;12.30;99.90
9987;DHT22;5033;46.310;11.214;2023-03-23T01:12:44;12.30;99.90
9987;DHT22;5033;46.310;11.214;2023-03-23T01:15:16;12.30;99.90
9987;DHT22;5033;46.310;11.214;2023-03-23T01:17:45;12.30;99.90
9987;DHT22;5033;46.310;11.214;2023-03-23T01:20:13;12.30;99.90
9987;DHT22;5033;46.310;11.214;2023-03-23T01:22:41;12.30;99.90
9987;DHT22;5033;46.310;11.214;2023-03-23T01:25:11;12.40;99.90
9987;DHT22;5033;46.310;11.214;2023-03-23T01:27:39;12.40;99.90
9987;DHT22;5033;46.310;11.214;2023-03-23T01:30:07;12.40;99.90
9987;DHT22;5033;46.310;11.214;2023-03-23T01:32:35;12.40;99.90
9987;DHT22;5033;46.310;11.214;2023-03-23T01:35:03;12.40;99.90
9987;DHT22;5033;46.310;11.214;2023-03-23T01:37:31;12.40;99.90
9987;DHT22;5033;46.310;11.214;2023-03-23T01:39:58;12.30;99.90
9987;DHT22;5033;46.310;11.214;2023-03-23T01:42:30;12.30;99.90
9987;DHT22;5033;46.310;11.214;2023-03-23T01:45:21;12.30;99.90
9987;DHT22;5033;46.310;11.214;2023-03-23T01:47:50;12.30;99.90
9987;DHT22;5033;46.310;11.214;2023-03-23T01:50:21;12.20;99.90
9987;DHT22;5033;46.310;11.214;2023-03-23T01:52:50;12.20;99.90
9987;DHT22;5033;46.310;11.214;2023-03-23T01:55:18;12.10;99.90
9987;DHT22;5033;46.310;11.214;2023-03-23T01:57:47;12.20;99.90
9987;DHT22;5033;46.310;11.214;2023-03-23T02:00:15;12.10;99.90
9987;DHT22;5033;46.310;11.214;2023-03-23T02:02:44;12.10;99.90
9987;DHT22;5033;46.310;11.214;2023-03-23T02:05:21;12.10;99.90
9987;DHT22;5033;46.310;11.214;2023-03-23T02:07:50;12.10;99.90
9987;DHT22;5033;46.310;11.214;2023-03-23T02:10:18;12.00;99.90
9987;DHT22;5033;46.310;11.214;2023-03-23T02:12:45;12.00;99.90
9987;DHT22;5033;46.310;11.214;2023-03-23T02:15:12;12.00;99.90
9987;DHT22;5033;46.310;11.214;2023-03-23T02:17:44;12.00;99.90
9987;DHT22;5033;46.310;11.214;2023-03-23T02:20:43;11.90;99.90
9987;DHT22;5033;46.310;11.214;2023-03-23T02:23:26;11.90;99.90
9987;DHT22;5033;46.310;11.214;2023-03-23T02:26:15;11.80;99.90
9987;DHT22;5033;46.310;11.214;2023-03-23T02:29:08;11.80;99.90
9987;DHT22;5033;46.310;11.214;2023-03-23T02:32:00;11.70;99.90
9987;DHT22;5033;46.310;11.214;2023-03-23T02:34:35;11.70;99.90
9987;DHT22;5033;46.310;11.214;2023-03-23T02:37:09;11.70;99.90
9987;DHT22;5033;46.310;11.214;2023-03-23T02:39:43;11.70;99.90
9987;DHT22;5033;46.310;11.214;2023-03-23T02:42:15;11.70;99.90
9987;DHT22;5033;46.310;11.214;2023-03-23T02:44:45;11.70;99.90
9987;DHT22;5033;46.310;11.214;2023-03-23T02:47:17;11.70;99.90
9987;DHT22;5033;46.310;11.214;2023-03-23T02:49:49;11.70;99.90
9987;DHT22;5033;46.310;11.214;2023-03-23T02:52:20;11.70;99.90
9987;DHT22;5033;46.310;11.214;2023-03-23T02:54:49;11.70;99.90
9987;DHT22;5033;46.310;11.214;2023-03-23T02:57:18;11.70;99.90
9987;DHT22;5033;46.310;11.214;2023-03-23T02:59:46;11.70;99.90
9987;DHT22;5033;46.310;11.214;2023-03-23T03:02:15;11.70;99.90
9987;DHT22;5033;46.310;11.214;2023-03-23T03:04:51;11.70;99.90
9987;DHT22;5033;46.310;11.214;2023-03-23T03:07:32;11.70;99.90
9987;DHT22;5033;46.310;11.214;2023-03-23T03:10:05;11.70;99.90
9987;DHT22;5033;46.310;11.214;2023-03-23T03:12:40;11.70;99.90
9987;DHT22;5033;46.310;11.214;2023-03-23T03:15:17;11.70;99.90
9987;DHT22;5033;46.310;11.214;2023-03-23T03:17:53;11.70;99.90
9987;DHT22;5033;46.310;11.214;2023-03-23T03:20:25;11.70;99.90
9987;DHT22;5033;46.310;11.214;2023-03-23T03:22:54;11.70;99.90
9987;DHT22;5033;46.310;11.214;2023-03-23T03:25:22;11.60;99.90
9987;DHT22;5033;46.310;11.214;2023-03-23T03:27:50;11.50;99.90
9987;DHT22;5033;46.310;11.214;2023-03-23T03:30:20;11.50;99.90
9987;DHT22;5033;46.310;11.214;2023-03-23T03:32:50;11.50;99.90
9987;DHT22;5033;46.310;11.214;2023-03-23T03:35:19;11.40;99.90
9987;DHT22;5033;46.310;11.214;2023-03-23T03:37:49;11.50;99.90
9987;DHT22;5033;46.310;11.214;2023-03-23T03:40:18;11.40;99.90
9987;DHT22;5033;46.310;11.214;2023-03-23T03:42:46;11.50;99.90
9987;DHT22;5033;46.310;11.214;2023-03-23T03:45:15;11.40;99.90
9987;DHT22;5033;46.310;11.214;2023-03-23T03:47:42;11.40;99.90
9987;DHT22;5033;46.310;11.214;2023-03-23T03:50:10;11.40;99.90
9987;DHT22;5033;46.310;11.214;2023-03-23T03:52:37;11.30;99.90
9987;DHT22;5033;46.310;11.214;2023-03-23T03:55:08;11.30;99.90
9987;DHT22;5033;46.310;11.214;2023-03-23T03:57:36;11.30;99.90
9987;DHT22;5033;46.310;11.214;2023-03-23T04:00:04;11.20;99.90
9987;DHT22;5033;46.310;11.214;2023-03-23T04:02:40;11.20;99.90
9987;DHT22;5033;46.310;11.214;2023-03-23T04:05:07;11.20;99.90
9987;DHT22;5033;46.310;11.214;2023-03-23T04:07:36;11.10;99.90
9987;DHT22;5033;46.310;11.214;2023-03-23T04:10:07;11.10;99.90
9987;DHT22;5033;46.310;11.214;2023-03-23T04:12:35;11.10;99.90
9987;DHT22;5033;46.310;11.214;2023-03-23T04:15:02;11.10;99.90
9987;DHT22;5033;46.310;11.214;2023-03-23T04:17:29;11.10;99.90
9987;DHT22;5033;46.310;11.214;2023-03-23T04:19:56;11.10;99.90
9987;DHT22;5033;46.310;11.214;2023-03-23T04:22:24;11.10;99.90
9987;DHT22;5033;46.310;11.214;2023-03-23T04:24:56;11.10;99.90
9987;DHT22;5033;46.310;11.214;2023-03-23T04:27:25;11.10;99.90
9987;DHT22;5033;46.310;11.214;2023-03-23T04:29:54;11.10;99.90
9987;DHT22;5033;46.310;11.214;2023-03-23T04:32:21;11.10;99.90
9987;DHT22;5033;46.310;11.214;2023-03-23T04:34:50;11.10;99.90
9987;DHT22;5033;46.310;11.214;2023-03-23T04:37:17;11.20;99.90
9987;DHT22;5033;46.310;11.214;2023-03-23T04:39:44;11.10;99.90
9987;DHT22;5033;46.310;11.214;2023-03-23T04:42:11;11.10;99.90
9987;DHT22;5033;46.310;11.214;2023-03-23T04:44:40;11.00;99.90
9987;DHT22;5033;46.310;11.214;2023-03-23T04:47:09;11.00;99.90
9987;DHT22;5033;46.310;11.214;2023-03-23T04:49:36;10.90;99.90
9987;DHT22;5033;46.310;11.214;2023-03-23T04:52:03;11.00;99.90
9987;DHT22;5033;46.310;11.214;2023-03-23T04:54:31;10.90;99.90
9987;DHT22;5033;46.310;11.214;2023-03-23T04:56:58;10.90;99.90
9987;DHT22;5033;46.310;11.214;2023-03-23T04:59:25;10.90;99.90
9987;DHT22;5033;46.310;11.214;2023-03-23T05:01:55;10.90;99.90
9987;DHT22;5033;46.310;11.214;2023-03-23T05:04:21;10.90;99.90
9987;DHT22;5033;46.310;11.214;2023-03-23T05:06:50;10.90;99.90
9987;DHT22;5033;46.310;11.214;2023-03-23T05:09:18;10.90;99.90
9987;DHT22;5033;46.310;11.214;2023-03-23T05:11:45;10.90;99.90
9987;DHT22;5033;46.310;11.214;2023-03-23T05:14:12;10.90;99.90
9987;DHT22;5033;46.310;11.214;2023-03-23T05:16:39;10.90;99.90
9987;DHT22;5033;46.310;11.214;2023-03-23T05:19:08;10.90;99.90
9987;DHT22;5033;46.310;11.214;2023-03-23T05:21:35;10.80;99.90
9987;DHT22;5033;46.310;11.214;2023-03-23T05:24:02;10.80;99.90
9987;DHT22;5033;46.310;11.214;2023-03-23T05:26:29;10.90;99.90
9987;DHT22;5033;46.310;11.214;2023-03-23T05:28:58;10.80;99.90
9987;DHT22;5033;46.310;11.214;2023-03-23T05:31:25;10.80;99.90
9987;DHT22;5033;46.310;11.214;2023-03-23T05:33:52;10.80;99.90
9987;DHT22;5033;46.310;11.214;2023-03-23T05:36:21;10.80;99.90
9987;DHT22;5033;46.310;11.214;2023-03-23T05:38:48;10.90;99.90
9987;DHT22;5033;46.310;11.214;2023-03-23T05:41:17;10.90;99.90
9987;DHT22;5033;46.310;11.214;2023-03-23T05:43:44;10.90;99.90
9987;DHT22;5033;46.310;11.214;2023-03-23T05:46:11;10.90;99.90
9987;DHT22;5033;46.310;11.214;2023-03-23T05:48:38;10.90;99.90
9987;DHT22;5033;46.310;11.214;2023-03-23T05:51:05;10.90;99.90
9987;DHT22;5033;46.310;11.214;2023-03-23T05:53:33;11.00;99.90
9987;DHT22;5033;46.310;11.214;2023-03-23T05:56:01;11.00;99.90
9987;DHT22;5033;46.310;11.214;2023-03-23T05:58:29;11.10;99.90
9987;DHT22;5033;46.310;11.214;2023-03-23T06:00:57;11.10;99.90
9987;DHT22;5033;46.310;11.214;2023-03-23T06:03:24;11.10;99.90
9987;DHT22;5033;46.310;11.214;2023-03-23T06:05:51;11.20;99.90
9987;DHT22;5033;46.310;11.214;2023-03-23T06:08:18;11.30;99.90
9987;DHT22;5033;46.310;11.214;2023-03-23T06:10:46;11.30;99.90
9987;DHT22;5033;46.310;11.214;2023-03-23T06:13:13;11.40;99.90
9987;DHT22;5033;46.310;11.214;2023-03-23T06:15:40;11.40;99.90
9987;DHT22;5033;46.310;11.214;2023-03-23T06:18:08;11.50;99.90
9987;DHT22;5033;46.310;11.214;2023-03-23T06:20:36;11.50;99.90
9987;DHT22;5033;46.310;11.214;2023-03-23T06:23:03;11.60;99.90
9987;DHT22;5033;46.310;11.214;2023-03-23T06:25:30;11.80;99.90
9987;DHT22;5033;46.310;11.214;2023-03-23T06:27:59;12.00;99.90
9987;DHT22;5033;46.310;11.214;2023-03-23T06:30:26;12.30;99.90
9987;DHT22;5033;46.310;11.214;2023-03-23T06:32:54;12.50;99.90
9987;DHT22;5033;46.310;11.214;2023-03-23T06:35:21;12.50;99.90
9987;DHT22;5033;46.310;11.214;2023-03-23T06:37:49;12.60;99.90
9987;DHT22;5033;46.310;11.214;2023-03-23T06:40:17;12.90;99.90
9987;DHT22;5033;46.310;11.214;2023-03-23T06:42:45;13.20;99.90
9987;DHT22;5033;46.310;11.214;2023-03-23T06:45:13;13.40;99.90
9987;DHT22;5033;46.310;11.214;2023-03-23T06:47:40;13.70;99.90
9987;DHT22;5033;46.310;11.214;2023-03-23T06:50:08;13.90;99.90
9987;DHT22;5033;46.310;11.214;2023-03-23T06:52:35;13.80;99.90
9987;DHT22;5033;46.310;11.214;2023-03-23T06:55:03;13.80;99.90
9987;DHT22;5033;46.310;11.214;2023-03-23T06:57:30;13.90;99.90
9987;DHT22;5033;46.310;11.214;2023-03-23T06:59:57;14.00;99.90
9987;DHT22;5033;46.310;11.214;2023-03-23T07:02:25;14.10;99.90
9987;DHT22;5033;46.310;11.214;2023-03-23T07:04:52;14.10;99.90
9987;DHT22;5033;46.310;11.214;2023-03-23T07:07:20;14.10;99.90
9987;DHT22;5033;46.310;11.214;2023-03-23T07:09:46;14.20;99.90
9987;DHT22;5033;46.310;11.214;2023-03-23T07:12:13;14.20;99.90
9987;DHT22;5033;46.310;11.214;2023-03-23T07:14:41;14.20;99.90
9987;DHT22;5033;46.310;11.214;2023-03-23T07:17:08;14.20;99.90
9987;DHT22;5033;46.310;11.214;2023-03-23T07:19:36;14.10;99.90
9987;DHT22;5033;46.310;11.214;2023-03-23T07:22:05;14.00;99.90
9987;DHT22;5033;46.310;11.214;2023-03-23T07:24:33;13.90;99.90
9987;DHT22;5033;46.310;11.214;2023-03-23T07:27:00;13.60;99.90
9987;DHT22;5033;46.310;11.214;2023-03-23T07:29:27;13.50;99.90
9987;DHT22;5033;46.310;11.214;2023-03-23T07:31:54;13.40;99.90
9987;DHT22;5033;46.310;11.214;2023-03-23T07:34:21;13.30;99.90
9987;DHT22;5033;46.310;11.214;2023-03-23T07:36:49;13.20;99.90
9987;DHT22;5033;46.310;11.214;2023-03-23T07:39:16;13.10;99.90
9987;DHT22;5033;46.310;11.214;2023-03-23T07:41:43;13.10;99.90
9987;DHT22;5033;46.310;11.214;2023-03-23T07:44:10;13.00;99.90
9987;DHT22;5033;46.310;11.214;2023-03-23T07:46:37;13.00;99.90
9987;DHT22;5033;46.310;11.214;2023-03-23T07:49:04;13.10;99.90
9987;DHT22;5033;46.310;11.214;2023-03-23T07:51:31;13.10;99.90
9987;DHT22;5033;46.310;11.214;2023-03-23T07:54:00;13.70;99.90
9987;DHT22;5033;46.310;11.214;2023-03-23T07:56:28;14.40;99.90
9987;DHT22;5033;46.310;11.214;2023-03-23T07:58:55;15.00;99.90
9987;DHT22;5033;46.310;11.214;2023-03-23T08:01:23;15.80;99.90
9987;DHT22;5033;46.310;11.214;2023-03-23T08:03:50;16.40;99.90
9987;DHT22;5033;46.310;11.214;2023-03-23T08:06:17;16.70;99.90
9987;DHT22;5033;46.310;11.214;2023-03-23T08:08:44;16.40;99.90
9987;DHT22;5033;46.310;11.214;2023-03-23T08:11:13;15.80;99.90
9987;DHT22;5033;46.310;11.214;2023-03-23T08:13:41;15.40;99.90
9987;DHT22;5033;46.310;11.214;2023-03-23T08:16:08;15.20;99.90
9987;DHT22;5033;46.310;11.214;2023-03-23T08:18:35;15.00;99.90
9987;DHT22;5033;46.310;11.214;2023-03-23T08:21:04;14.90;99.90
9987;DHT22;5033;46.310;11.214;2023-03-23T08:23:31;14.90;99.90
9987;DHT22;5033;46.310;11.214;2023-03-23T08:25:59;14.90;99.90
9987;DHT22;5033;46.310;11.214;2023-03-23T08:28:27;14.90;99.90
9987;DHT22;5033;46.310;11.214;2023-03-23T08:30:54;14.80;99.90
9987;DHT22;5033;46.310;11.214;2023-03-23T08:33:22;14.90;99.90
9987;DHT22;5033;46.310;11.214;2023-03-23T08:35:55;15.10;99.90
9987;DHT22;5033;46.310;11.214;2023-03-23T08:38:22;15.00;99.90
9987;DHT22;5033;46.310;11.214;2023-03-23T08:40:49;15.10;99.90
9987;DHT22;5033;46.310;11.214;2023-03-23T08:43:16;15.20;99.90
9987;DHT22;5033;46.310;11.214;2023-03-23T08:45:44;15.30;99.90
9987;DHT22;5033;46.310;11.214;2023-03-23T08:48:12;15.50;99.90
9987;DHT22;5033;46.310;11.214;2023-03-23T08:50:39;15.70;99.90
9987;DHT22;5033;46.310;11.214;2023-03-23T08:53:06;15.70;99.90
9987;DHT22;5033;46.310;11.214;2023-03-23T08:55:34;15.70;99.90
9987;DHT22;5033;46.310;11.214;2023-03-23T08:58:01;15.90;99.90
9987;DHT22;5033;46.310;11.214;2023-03-23T09:00:29;16.10;99.90
9987;DHT22;5033;46.310;11.214;2023-03-23T09:02:57;16.20;99.90
9987;DHT22;5033;46.310;11.214;2023-03-23T09:05:27;16.10;99.90
9987;DHT22;5033;46.310;11.214;2023-03-23T09:07:57;16.30;99.90
9987;DHT22;5033;46.310;11.214;2023-03-23T09:10:26;16.20;99.90
9987;DHT22;5033;46.310;11.214;2023-03-23T09:12:54;15.90;99.90
9987;DHT22;5033;46.310;11.214;2023-03-23T09:15:21;15.60;99.90
9987;DHT22;5033;46.310;11.214;2023-03-23T09:17:51;15.90;99.90
9987;DHT22;5033;46.310;11.214;2023-03-23T09:20:22;16.50;99.90
9987;DHT22;5033;46.310;11.214;2023-03-23T09:22:51;17.10;99.90
9987;DHT22;5033;46.310;11.214;2023-03-23T09:25:22;17.20;99.90
9987;DHT22;5033;46.310;11.214;2023-03-23T09:27:52;17.00;99.90
9987;DHT22;5033;46.310;11.214;2023-03-23T09:30:22;16.90;99.90
9987;DHT22;5033;46.310;11.214;2023-03-23T09:32:49;16.80;99.90
9987;DHT22;5033;46.310;11.214;2023-03-23T09:35:17;17.00;99.90
9987;DHT22;5033;46.310;11.214;2023-03-23T09:37:49;17.10;99.90
9987;DHT22;5033;46.310;11.214;2023-03-23T09:40:18;17.40;99.90
9987;DHT22;5033;46.310;11.214;2023-03-23T09:45:50;17.70;99.90
9987;DHT22;5033;46.310;11.214;2023-03-23T09:48:36;17.60;99.90
9987;DHT22;5033;46.310;11.214;2023-03-23T09:51:11;17.70;99.90
9987;DHT22;5033;46.310;11.214;2023-03-23T09:53:43;17.80;99.90
9987;DHT22;5033;46.310;11.214;2023-03-23T09:56:13;18.20;99.90
9987;DHT22;5033;46.310;11.214;2023-03-23T09:58:46;18.50;99.90
9987;DHT22;5033;46.310;11.214;2023-03-23T10:01:17;18.50;99.90
9987;DHT22;5033;46.310;11.214;2023-03-23T10:03:46;18.50;99.90
9987;DHT22;5033;46.310;11.214;2023-03-23T10:06:16;18.40;99.90
9987;DHT22;5033;46.310;11.214;2023-03-23T10:08:49;18.40;99.90
9987;DHT22;5033;46.310;11.214;2023-03-23T10:11:22;18.30;99.90
9987;DHT22;5033;46.310;11.214;2023-03-23T10:14:14;18.10;99.90
9987;DHT22;5033;46.310;11.214;2023-03-23T10:16:49;18.00;99.90
9987;DHT22;5033;46.310;11.214;2023-03-23T10:19:26;18.00;99.90
9987;DHT22;5033;46.310;11.214;2023-03-23T10:21:59;17.80;99.90
9987;DHT22;5033;46.310;11.214;2023-03-23T10:24:35;17.90;99.90
9987;DHT22;5033;46.310;11.214;2023-03-23T10:27:10;18.40;99.90
9987;DHT22;5033;46.310;11.214;2023-03-23T10:29:43;18.80;99.90
9987;DHT22;5033;46.310;11.214;2023-03-23T10:32:14;19.00;99.90
9987;DHT22;5033;46.310;11.214;2023-03-23T10:34:45;19.20;99.90
9987;DHT22;5033;46.310;11.214;2023-03-23T10:37:18;19.40;99.90
9987;DHT22;5033;46.310;11.214;2023-03-23T10:39:52;19.60;99.90
9987;DHT22;5033;46.310;11.214;2023-03-23T10:42:28;20.10;99.90
9987;DHT22;5033;46.310;11.214;2023-03-23T10:44:58;20.60;99.90
9987;DHT22;5033;46.310;11.214;2023-03-23T10:47:26;20.80;99.90
9987;DHT22;5033;46.310;11.214;2023-03-23T10:49:56;20.50;99.90
9987;DHT22;5033;46.310;11.214;2023-03-23T10:52:32;20.50;99.90
9987;DHT22;5033;46.310;11.214;2023-03-23T10:55:08;20.50;99.90
9987;DHT22;5033;46.310;11.214;2023-03-23T10:57:37;20.60;99.90
9987;DHT22;5033;46.310;11.214;2023-03-23T11:00:06;20.60;99.90
9987;DHT22;5033;46.310;11.214;2023-03-23T11:02:39;20.70;99.90
9987;DHT22;5033;46.310;11.214;2023-03-23T11:05:16;21.10;99.90
9987;DHT22;5033;46.310;11.214;2023-03-23T11:07:50;21.00;99.90
9987;DHT22;5033;46.310;11.214;2023-03-23T11:10:23;21.10;99.90
9987;DHT22;5033;46.310;11.214;2023-03-23T11:12:52;21.10;99.90
9987;DHT22;5033;46.310;11.214;2023-03-23T11:15:29;21.30;99.90
9987;DHT22;5033;46.310;11.214;2023-03-23T11:17:58;21.90;99.90
9987;DHT22;5033;46.310;11.214;2023-03-23T11:20:26;22.30;99.90
9987;DHT22;5033;46.310;11.214;2023-03-23T11:22:55;22.20;99.90
9987;DHT22;5033;46.310;11.214;2023-03-23T11:25:24;22.10;99.90
9987;DHT22;5033;46.310;11.214;2023-03-23T11:27:52;21.90;99.90
9987;DHT22;5033;46.310;11.214;2023-03-23T11:30:23;21.70;99.90
9987;DHT22;5033;46.310;11.214;2023-03-23T11:32:53;21.50;99.90
9987;DHT22;5033;46.310;11.214;2023-03-23T11:35:23;21.60;99.90
9987;DHT22;5033;46.310;11.214;2023-03-23T11:37:54;21.70;99.90
9987;DHT22;5033;46.310;11.214;2023-03-23T11:40:25;21.80;99.90
9987;DHT22;5033;46.310;11.214;2023-03-23T11:42:59;21.80;99.90
9987;DHT22;5033;46.310;11.214;2023-03-23T11:45:33;21.80;99.90
9987;DHT22;5033;46.310;11.214;2023-03-23T11:48:12;21.80;99.90
9987;DHT22;5033;46.310;11.214;2023-03-23T11:50:48;22.00;99.90
9987;DHT22;5033;46.310;11.214;2023-03-23T11:53:30;21.90;99.90
9987;DHT22;5033;46.310;11.214;2023-03-23T11:56:07;21.90;99.90
9987;DHT22;5033;46.310;11.214;2023-03-23T11:58:35;22.10;99.90
9987;DHT22;5033;46.310;11.214;2023-03-23T12:01:06;21.60;99.90
9987;DHT22;5033;46.310;11.214;2023-03-23T12:03:53;21.20;99.90
9987;DHT22;5033;46.310;11.214;2023-03-23T12:06:30;21.20;99.90
9987;DHT22;5033;46.310;11.214;2023-03-23T12:09:07;21.30;99.90
9987;DHT22;5033;46.310;11.214;2023-03-23T12:11:41;21.30;99.90
9987;DHT22;5033;46.310;11.214;2023-03-23T12:14:16;21.20;99.90
9987;DHT22;5033;46.310;11.214;2023-03-23T12:16:54;21.30;99.90
9987;DHT22;5033;46.310;11.214;2023-03-23T12:19:40;21.20;99.90
9987;DHT22;5033;46.310;11.214;2023-03-23T12:22:20;21.20;99.90
9987;DHT22;5033;46.310;11.214;2023-03-23T12:24:57;21.50;99.90
9987;DHT22;5033;46.310;11.214;2023-03-23T12:27:34;21.80;99.90
9987;DHT22;5033;46.310;11.214;2023-03-23T12:30:13;21.60;99.90
9987;DHT22;5033;46.310;11.214;2023-03-23T12:32:53;21.20;99.90
9987;DHT22;5033;46.310;11.214;2023-03-23T12:35:30;21.20;99.90
9987;DHT22;5033;46.310;11.214;2023-03-23T12:38:21;21.00;99.90
9987;DHT22;5033;46.310;11.214;2023-03-23T12:41:05;20.90;99.90
9987;DHT22;5033;46.310;11.214;2023-03-23T12:43:40;21.50;99.90
9987;DHT22;5033;46.310;11.214;2023-03-23T12:46:25;22.20;99.90
9987;DHT22;5033;46.310;11.214;2023-03-23T12:48:57;22.40;99.90
9987;DHT22;5033;46.310;11.214;2023-03-23T12:51:31;22.00;99.90
9987;DHT22;5033;46.310;11.214;2023-03-23T12:54:10;21.60;99.90
9987;DHT22;5033;46.310;11.214;2023-03-23T12:56:42;21.50;99.90
9987;DHT22;5033;46.310;11.214;2023-03-23T12:59:16;21.70;99.90
9987;DHT22;5033;46.310;11.214;2023-03-23T13:01:47;22.00;99.90
9987;DHT22;5033;46.310;11.214;2023-03-23T13:04:18;22.50;99.90
9987;DHT22;5033;46.310;11.214;2023-03-23T13:06:47;22.90;99.90
9987;DHT22;5033;46.310;11.214;2023-03-23T13:09:20;23.30;99.90
9987;DHT22;5033;46.310;11.214;2023-03-23T13:11:51;23.50;99.90
9987;DHT22;5033;46.310;11.214;2023-03-23T13:14:29;23.40;99.90
9987;DHT22;5033;46.310;11.214;2023-03-23T13:17:08;23.20;99.90
9987;DHT22;5033;46.310;11.214;2023-03-23T13:19:57;22.90;99.90
9987;DHT22;5033;46.310;11.214;2023-03-23T13:22:29;22.40;99.90
9987;DHT22;5033;46.310;11.214;2023-03-23T13:25:02;22.30;99.90
9987;DHT22;5033;46.310;11.214;2023-03-23T13:27:33;22.10;99.90
9987;DHT22;5033;46.310;11.214;2023-03-23T13:30:02;21.90;99.90
9987;DHT22;5033;46.310;11.214;2023-03-23T13:32:33;21.90;99.30
9987;DHT22;5033;46.310;11.214;2023-03-23T13:35:02;21.80;99.30
9987;DHT22;5033;46.310;11.214;2023-03-23T13:37:31;21.70;99.00
9987;DHT22;5033;46.310;11.214;2023-03-23T13:40:11;21.60;99.80
9987;DHT22;5033;46.310;11.214;2023-03-23T13:42:48;21.80;99.80
9987;DHT22;5033;46.310;11.214;2023-03-23T13:45:21;21.80;99.20
9987;DHT22;5033;46.310;11.214;2023-03-23T13:47:50;21.90;99.80
9987;DHT22;5033;46.310;11.214;2023-03-23T13:50:30;21.90;99.00
9987;DHT22;5033;46.310;11.214;2023-03-23T13:53:00;21.80;99.30
9987;DHT22;5033;46.310;11.214;2023-03-23T13:55:39;21.70;99.50
9987;DHT22;5033;46.310;11.214;2023-03-23T13:58:12;21.60;99.60
9987;DHT22;5033;46.310;11.214;2023-03-23T14:01:00;21.70;99.90
9987;DHT22;5033;46.310;11.214;2023-03-23T14:03:35;21.60;99.50
9987;DHT22;5033;46.310;11.214;2023-03-23T14:06:04;21.50;98.90
9987;DHT22;5033;46.310;11.214;2023-03-23T14:08:41;21.30;98.80
9987;DHT22;5033;46.310;11.214;2023-03-23T14:11:15;21.40;99.00
9987;DHT22;5033;46.310;11.214;2023-03-23T14:13:45;21.40;99.40
9987;DHT22;5033;46.310;11.214;2023-03-23T14:16:17;21.50;99.60
9987;DHT22;5033;46.310;11.214;2023-03-23T14:18:51;21.50;99.30
9987;DHT22;5033;46.310;11.214;2023-03-23T14:21:25;21.50;99.70
9987;DHT22;5033;46.310;11.214;2023-03-23T14:23:52;21.40;99.20
9987;DHT22;5033;46.310;11.214;2023-03-23T14:26:21;21.40;99.50
9987;DHT22;5033;46.310;11.214;2023-03-23T14:28:51;21.40;99.10
9987;DHT22;5033;46.310;11.214;2023-03-23T14:31:22;21.30;98.90
9987;DHT22;5033;46.310;11.214;2023-03-23T14:33:50;21.10;98.80
9987;DHT22;5033;46.310;11.214;2023-03-23T14:36:20;21.00;99.10
9987;DHT22;5033;46.310;11.214;2023-03-23T14:38:55;20.90;99.40
9987;DHT22;5033;46.310;11.214;2023-03-23T14:41:23;20.90;99.40
9987;DHT22;5033;46.310;11.214;2023-03-23T14:43:50;20.90;99.30
9987;DHT22;5033;46.310;11.214;2023-03-23T14:46:18;20.80;98.90
9987;DHT22;5033;46.310;11.214;2023-03-23T14:48:46;20.80;99.10
9987;DHT22;5033;46.310;11.214;2023-03-23T14:51:18;20.80;99.10
9987;DHT22;5033;46.310;11.214;2023-03-23T14:53:46;20.80;99.10
9987;DHT22;5033;46.310;11.214;2023-03-23T14:56:18;20.80;99.50
9987;DHT22;5033;46.310;11.214;2023-03-23T14:58:47;20.90;99.60
9987;DHT22;5033;46.310;11.214;2023-03-23T15:01:18;20.90;99.40
9987;DHT22;5033;46.310;11.214;2023-03-23T15:03:51;20.90;99.40
9987;DHT22;5033;46.310;11.214;2023-03-23T15:06:21;20.90;99.40
9987;DHT22;5033;46.310;11.214;2023-03-23T15:08:50;20.70;99.30
9987;DHT22;5033;46.310;11.214;2023-03-23T15:11:26;20.70;99.40
9987;DHT22;5033;46.310;11.214;2023-03-23T15:13:56;20.80;99.50
9987;DHT22;5033;46.310;11.214;2023-03-23T15:16:28;20.90;99.40
9987;DHT22;5033;46.310;11.214;2023-03-23T15:18:58;20.90;99.50
9987;DHT22;5033;46.310;11.214;2023-03-23T15:21:28;20.80;99.20
9987;DHT22;5033;46.310;11.214;2023-03-23T15:23:56;20.70;99.60
9987;DHT22;5033;46.310;11.214;2023-03-23T15:26:29;20.60;99.70
9987;DHT22;5033;46.310;11.214;2023-03-23T15:29:14;20.50;99.70
9987;DHT22;5033;46.310;11.214;2023-03-23T15:31:45;20.20;99.90
9987;DHT22;5033;46.310;11.214;2023-03-23T15:34:27;20.00;99.90
9987;DHT22;5033;46.310;11.214;2023-03-23T15:36:58;19.90;99.90
9987;DHT22;5033;46.310;11.214;2023-03-23T15:39:25;19.70;99.90
9987;DHT22;5033;46.310;11.214;2023-03-23T15:41:54;19.60;99.90
9987;DHT22;5033;46.310;11.214;2023-03-23T15:44:27;19.50;99.90
9987;DHT22;5033;46.310;11.214;2023-03-23T15:47:12;19.50;99.90
9987;DHT22;5033;46.310;11.214;2023-03-23T15:49:39;19.50;99.90
9987;DHT22;5033;46.310;11.214;2023-03-23T15:52:09;19.50;99.90
9987;DHT22;5033;46.310;11.214;2023-03-23T15:54:37;19.50;99.90
9987;DHT22;5033;46.310;11.214;2023-03-23T15:57:04;19.50;99.90
9987;DHT22;5033;46.310;11.214;2023-03-23T15:59:31;19.40;99.90
9987;DHT22;5033;46.310;11.214;2023-03-23T16:01:58;19.40;99.90
9987;DHT22;5033;46.310;11.214;2023-03-23T16:04:26;19.40;99.90
9987;DHT22;5033;46.310;11.214;2023-03-23T16:06:55;19.30;99.90
9987;DHT22;5033;46.310;11.214;2023-03-23T16:09:24;19.30;99.90